sensor_id;sensor_type;location;lat;lon;timestamp;P1;durP1;ratioP1;P2;durP2;ratioP2
74363;SDS011;62797;49.740;10.154;2022-12-24T00:02:16;9.18;;;2.72;;
74363;SDS011;62797;49.740;10.154;2022-12-24T00:04:42;12.55;;;3.05;;
74363;SDS011;62797;49.740;10.154;2022-12-24T00:07:07;5.77;;;1.53;;
74363;SDS011;62797;49.740;10.154;2022-12-24T00:09:33;7.47;;;2.00;;
74363;SDS011;62797;49.740;10.154;2022-12-24T00:11:58;10.20;;;3.03;;
74363;SDS011;62797;49.740;10.154;2022-12-24T00:14:24;15.53;;;2.67;;
74363;SDS011;62797;49.740;10.154;2022-12-24T00:16:50;9.43;;;3.00;;
74363;SDS011;62797;49.740;10.154;2022-12-24T00:19:15;15.03;;;3.70;;
74363;SDS011;62797;49.740;10.154;2022-12-24T00:21:41;18.60;;;3.63;;
74363;SDS011;62797;49.740;10.154;2022-12-24T00:24:06;19.47;;;3.83;;
74363;SDS011;62797;49.740;10.154;2022-12-24T00:26:32;19.33;;;2.60;;
74363;SDS011;62797;49.740;10.154;2022-12-24T00:28:58;11.55;;;2.90;;
74363;SDS011;62797;49.740;10.154;2022-12-24T00:31:24;14.43;;;2.70;;
74363;SDS011;62797;49.740;10.154;2022-12-24T00:33:49;12.03;;;2.80;;
74363;SDS011;62797;49.740;10.154;2022-12-24T00:36:15;9.73;;;3.67;;
74363;SDS011;62797;49.740;10.154;2022-12-24T00:38:42;14.38;;;2.55;;
74363;SDS011;62797;49.740;10.154;2022-12-24T00:41:08;9.68;;;2.45;;
74363;SDS011;62797;49.740;10.154;2022-12-24T00:43:50;15.88;;;3.35;;
74363;SDS011;62797;49.740;10.154;2022-12-24T00:46:27;25.67;;;6.05;;
74363;SDS011;62797;49.740;10.154;2022-12-24T00:48:54;22.80;;;3.72;;
74363;SDS011;62797;49.740;10.154;2022-12-24T00:51:20;18.20;;;3.83;;
74363;SDS011;62797;49.740;10.154;2022-12-24T00:53:46;16.15;;;3.40;;
74363;SDS011;62797;49.740;10.154;2022-12-24T00:56:12;15.32;;;3.20;;
74363;SDS011;62797;49.740;10.154;2022-12-24T00:58:38;23.33;;;4.33;;
74363;SDS011;62797;49.740;10.154;2022-12-24T01:01:04;12.65;;;3.65;;
74363;SDS011;62797;49.740;10.154;2022-12-24T01:03:30;11.25;;;2.55;;
74363;SDS011;62797;49.740;10.154;2022-12-24T01:06:03;12.85;;;3.17;;
74363;SDS011;62797;49.740;10.154;2022-12-24T01:08:33;17.10;;;2.92;;
74363;SDS011;62797;49.740;10.154;2022-12-24T01:13:26;9.25;;;2.25;;
74363;SDS011;62797;49.740;10.154;2022-12-24T01:15:52;9.57;;;2.77;;
74363;SDS011;62797;49.740;10.154;2022-12-24T01:18:17;16.10;;;3.60;;
74363;SDS011;62797;49.740;10.154;2022-12-24T01:20:43;22.13;;;3.67;;
74363;SDS011;62797;49.740;10.154;2022-12-24T01:23:09;15.27;;;3.10;;
74363;SDS011;62797;49.740;10.154;2022-12-24T01:25:36;16.77;;;3.37;;
74363;SDS011;62797;49.740;10.154;2022-12-24T01:28:02;14.80;;;3.50;;
74363;SDS011;62797;49.740;10.154;2022-12-24T01:30:28;22.60;;;5.28;;
74363;SDS011;62797;49.740;10.154;2022-12-24T01:32:54;13.43;;;2.50;;
74363;SDS011;62797;49.740;10.154;2022-12-24T01:35:20;16.63;;;3.97;;
74363;SDS011;62797;49.740;10.154;2022-12-24T01:37:45;13.63;;;3.23;;
74363;SDS011;62797;49.740;10.154;2022-12-24T01:40:16;11.80;;;2.85;;
74363;SDS011;62797;49.740;10.154;2022-12-24T01:43:01;16.88;;;3.42;;
74363;SDS011;62797;49.740;10.154;2022-12-24T01:46:06;22.83;;;4.93;;
74363;SDS011;62797;49.740;10.154;2022-12-24T01:53:51;12.40;;;2.17;;
74363;SDS011;62797;49.740;10.154;2022-12-24T01:56:26;18.87;;;4.10;;
74363;SDS011;62797;49.740;10.154;2022-12-24T01:58:54;10.63;;;2.70;;
74363;SDS011;62797;49.740;10.154;2022-12-24T02:01:24;10.60;;;2.72;;
74363;SDS011;62797;49.740;10.154;2022-12-24T02:03:50;15.77;;;2.72;;
74363;SDS011;62797;49.740;10.154;2022-12-24T02:06:16;13.30;;;3.15;;
74363;SDS011;62797;49.740;10.154;2022-12-24T02:08:44;20.60;;;3.47;;
74363;SDS011;62797;49.740;10.154;2022-12-24T02:11:11;20.67;;;2.75;;
74363;SDS011;62797;49.740;10.154;2022-12-24T02:13:39;10.73;;;2.45;;
74363;SDS011;62797;49.740;10.154;2022-12-24T02:16:16;10.60;;;2.40;;
74363;SDS011;62797;49.740;10.154;2022-12-24T02:18:52;11.55;;;2.80;;
74363;SDS011;62797;49.740;10.154;2022-12-24T02:24:09;17.27;;;3.17;;
74363;SDS011;62797;49.740;10.154;2022-12-24T02:35:21;20.17;;;4.30;;
74363;SDS011;62797;49.740;10.154;2022-12-24T02:38:10;14.10;;;3.70;;
74363;SDS011;62797;49.740;10.154;2022-12-24T02:40:45;16.85;;;3.92;;
74363;SDS011;62797;49.740;10.154;2022-12-24T02:43:20;13.20;;;2.72;;
74363;SDS011;62797;49.740;10.154;2022-12-24T02:45:54;16.48;;;3.10;;
74363;SDS011;62797;49.740;10.154;2022-12-24T02:48:25;24.20;;;3.58;;
74363;SDS011;62797;49.740;10.154;2022-12-24T02:50:54;8.77;;;3.13;;
74363;SDS011;62797;49.740;10.154;2022-12-24T02:53:20;12.18;;;2.38;;
74363;SDS011;62797;49.740;10.154;2022-12-24T03:06:42;22.23;;;3.40;;
74363;SDS011;62797;49.740;10.154;2022-12-24T03:12:11;12.48;;;2.55;;
74363;SDS011;62797;49.740;10.154;2022-12-24T03:14:40;10.40;;;2.88;;
74363;SDS011;62797;49.740;10.154;2022-12-24T03:17:07;8.95;;;2.88;;
74363;SDS011;62797;49.740;10.154;2022-12-24T03:19:34;21.40;;;2.97;;
74363;SDS011;62797;49.740;10.154;2022-12-24T03:22:01;13.23;;;2.28;;
74363;SDS011;62797;49.740;10.154;2022-12-24T03:24:31;15.90;;;2.50;;
74363;SDS011;62797;49.740;10.154;2022-12-24T03:26:57;10.37;;;3.80;;
74363;SDS011;62797;49.740;10.154;2022-12-24T03:29:24;26.02;;;4.88;;
74363;SDS011;62797;49.740;10.154;2022-12-24T03:31:51;20.87;;;4.53;;
74363;SDS011;62797;49.740;10.154;2022-12-24T03:34:22;14.52;;;3.33;;
74363;SDS011;62797;49.740;10.154;2022-12-24T03:36:48;13.17;;;2.33;;
74363;SDS011;62797;49.740;10.154;2022-12-24T03:39:14;10.43;;;2.35;;
74363;SDS011;62797;49.740;10.154;2022-12-24T03:41:40;20.80;;;3.00;;
74363;SDS011;62797;49.740;10.154;2022-12-24T03:44:05;14.17;;;2.70;;
74363;SDS011;62797;49.740;10.154;2022-12-24T03:46:31;14.80;;;2.83;;
74363;SDS011;62797;49.740;10.154;2022-12-24T03:48:56;14.20;;;2.97;;
74363;SDS011;62797;49.740;10.154;2022-12-24T03:51:23;32.35;;;3.80;;
74363;SDS011;62797;49.740;10.154;2022-12-24T03:53:54;15.48;;;2.63;;
74363;SDS011;62797;49.740;10.154;2022-12-24T03:56:21;15.70;;;3.55;;
74363;SDS011;62797;49.740;10.154;2022-12-24T03:58:47;17.08;;;2.92;;
74363;SDS011;62797;49.740;10.154;2022-12-24T04:01:13;22.55;;;3.90;;
74363;SDS011;62797;49.740;10.154;2022-12-24T04:03:40;19.92;;;2.78;;
74363;SDS011;62797;49.740;10.154;2022-12-24T04:06:08;11.23;;;2.63;;
74363;SDS011;62797;49.740;10.154;2022-12-24T04:08:35;14.10;;;2.53;;
74363;SDS011;62797;49.740;10.154;2022-12-24T04:11:00;13.40;;;2.80;;
74363;SDS011;62797;49.740;10.154;2022-12-24T04:13:28;14.80;;;2.60;;
74363;SDS011;62797;49.740;10.154;2022-12-24T04:16:00;20.53;;;3.50;;
74363;SDS011;62797;49.740;10.154;2022-12-24T04:18:28;14.15;;;2.45;;
74363;SDS011;62797;49.740;10.154;2022-12-24T04:20:54;18.65;;;4.10;;
74363;SDS011;62797;49.740;10.154;2022-12-24T04:23:20;22.03;;;3.50;;
74363;SDS011;62797;49.740;10.154;2022-12-24T04:25:46;16.20;;;2.80;;
74363;SDS011;62797;49.740;10.154;2022-12-24T04:28:12;18.53;;;3.43;;
74363;SDS011;62797;49.740;10.154;2022-12-24T04:30:38;9.27;;;1.90;;
74363;SDS011;62797;49.740;10.154;2022-12-24T04:33:04;16.42;;;3.53;;
74363;SDS011;62797;49.740;10.154;2022-12-24T04:35:30;13.25;;;2.25;;
74363;SDS011;62797;49.740;10.154;2022-12-24T04:37:56;15.43;;;3.67;;
74363;SDS011;62797;49.740;10.154;2022-12-24T04:40:22;20.50;;;3.42;;
74363;SDS011;62797;49.740;10.154;2022-12-24T04:42:47;14.30;;;3.23;;
74363;SDS011;62797;49.740;10.154;2022-12-24T04:47:40;15.45;;;3.60;;
74363;SDS011;62797;49.740;10.154;2022-12-24T04:50:06;16.00;;;2.67;;
74363;SDS011;62797;49.740;10.154;2022-12-24T04:54:58;19.35;;;4.78;;
74363;SDS011;62797;49.740;10.154;2022-12-24T04:57:23;14.30;;;2.33;;
74363;SDS011;62797;49.740;10.154;2022-12-24T04:59:49;19.23;;;3.57;;
74363;SDS011;62797;49.740;10.154;2022-12-24T05:02:15;16.20;;;3.00;;
74363;SDS011;62797;49.740;10.154;2022-12-24T05:04:40;12.03;;;2.97;;
74363;SDS011;62797;49.740;10.154;2022-12-24T05:07:06;16.60;;;3.93;;
74363;SDS011;62797;49.740;10.154;2022-12-24T05:09:31;17.17;;;4.03;;
74363;SDS011;62797;49.740;10.154;2022-12-24T05:11:57;16.17;;;2.87;;
74363;SDS011;62797;49.740;10.154;2022-12-24T05:14:22;15.33;;;3.10;;
74363;SDS011;62797;49.740;10.154;2022-12-24T05:16:48;10.70;;;2.30;;
74363;SDS011;62797;49.740;10.154;2022-12-24T05:19:13;21.23;;;3.37;;
74363;SDS011;62797;49.740;10.154;2022-12-24T05:21:39;13.77;;;3.30;;
74363;SDS011;62797;49.740;10.154;2022-12-24T05:24:05;15.27;;;2.77;;
74363;SDS011;62797;49.740;10.154;2022-12-24T05:26:52;17.98;;;3.47;;
74363;SDS011;62797;49.740;10.154;2022-12-24T05:29:20;10.30;;;3.40;;
74363;SDS011;62797;49.740;10.154;2022-12-24T05:31:46;9.23;;;2.83;;
74363;SDS011;62797;49.740;10.154;2022-12-24T05:34:12;16.70;;;2.37;;
74363;SDS011;62797;49.740;10.154;2022-12-24T05:36:39;12.40;;;2.28;;
74363;SDS011;62797;49.740;10.154;2022-12-24T05:39:05;10.77;;;3.83;;
74363;SDS011;62797;49.740;10.154;2022-12-24T05:41:31;14.07;;;3.00;;
74363;SDS011;62797;49.740;10.154;2022-12-24T05:43:57;17.45;;;2.72;;
74363;SDS011;62797;49.740;10.154;2022-12-24T05:46:23;18.70;;;3.50;;
74363;SDS011;62797;49.740;10.154;2022-12-24T05:51:15;10.00;;;3.10;;
74363;SDS011;62797;49.740;10.154;2022-12-24T05:53:46;26.40;;;4.03;;
74363;SDS011;62797;49.740;10.154;2022-12-24T05:56:13;9.65;;;2.67;;
74363;SDS011;62797;49.740;10.154;2022-12-24T05:58:43;20.73;;;2.70;;
74363;SDS011;62797;49.740;10.154;2022-12-24T06:01:09;16.88;;;2.92;;
74363;SDS011;62797;49.740;10.154;2022-12-24T06:03:35;15.15;;;3.20;;
74363;SDS011;62797;49.740;10.154;2022-12-24T06:06:03;15.18;;;2.97;;
74363;SDS011;62797;49.740;10.154;2022-12-24T06:08:30;13.55;;;2.53;;
74363;SDS011;62797;49.740;10.154;2022-12-24T06:10:57;6.32;;;2.20;;
74363;SDS011;62797;49.740;10.154;2022-12-24T06:13:24;16.05;;;3.10;;
74363;SDS011;62797;49.740;10.154;2022-12-24T06:15:53;12.98;;;2.95;;
74363;SDS011;62797;49.740;10.154;2022-12-24T06:18:22;21.73;;;3.85;;
74363;SDS011;62797;49.740;10.154;2022-12-24T06:20:54;12.20;;;2.20;;
74363;SDS011;62797;49.740;10.154;2022-12-24T06:23:21;15.82;;;2.58;;
74363;SDS011;62797;49.740;10.154;2022-12-24T06:25:47;20.77;;;2.47;;
74363;SDS011;62797;49.740;10.154;2022-12-24T06:28:14;14.07;;;2.53;;
74363;SDS011;62797;49.740;10.154;2022-12-24T06:30:40;15.88;;;3.25;;
74363;SDS011;62797;49.740;10.154;2022-12-24T06:33:09;9.02;;;2.30;;
74363;SDS011;62797;49.740;10.154;2022-12-24T06:35:35;16.53;;;2.83;;
74363;SDS011;62797;49.740;10.154;2022-12-24T06:38:00;13.47;;;3.20;;
74363;SDS011;62797;49.740;10.154;2022-12-24T06:40:26;16.57;;;3.47;;
74363;SDS011;62797;49.740;10.154;2022-12-24T06:42:52;12.85;;;3.45;;
74363;SDS011;62797;49.740;10.154;2022-12-24T06:45:17;15.60;;;3.03;;
74363;SDS011;62797;49.740;10.154;2022-12-24T06:47:43;21.03;;;3.03;;
74363;SDS011;62797;49.740;10.154;2022-12-24T06:50:08;15.03;;;3.10;;
74363;SDS011;62797;49.740;10.154;2022-12-24T06:52:34;13.43;;;3.43;;
74363;SDS011;62797;49.740;10.154;2022-12-24T06:55:00;17.60;;;3.47;;
74363;SDS011;62797;49.740;10.154;2022-12-24T06:57:26;19.08;;;2.95;;
74363;SDS011;62797;49.740;10.154;2022-12-24T06:59:52;13.57;;;2.70;;
74363;SDS011;62797;49.740;10.154;2022-12-24T07:02:17;21.13;;;3.13;;
74363;SDS011;62797;49.740;10.154;2022-12-24T07:04:43;11.93;;;2.53;;
74363;SDS011;62797;49.740;10.154;2022-12-24T07:07:08;14.07;;;2.17;;
74363;SDS011;62797;49.740;10.154;2022-12-24T07:09:34;8.63;;;3.30;;
74363;SDS011;62797;49.740;10.154;2022-12-24T07:11:59;20.67;;;3.10;;
74363;SDS011;62797;49.740;10.154;2022-12-24T07:14:25;19.83;;;3.57;;
74363;SDS011;62797;49.740;10.154;2022-12-24T07:16:51;21.00;;;4.27;;
74363;SDS011;62797;49.740;10.154;2022-12-24T07:19:17;19.80;;;3.83;;
74363;SDS011;62797;49.740;10.154;2022-12-24T07:21:42;14.70;;;3.13;;
74363;SDS011;62797;49.740;10.154;2022-12-24T07:24:08;14.63;;;2.40;;
74363;SDS011;62797;49.740;10.154;2022-12-24T07:26:33;20.33;;;3.23;;
74363;SDS011;62797;49.740;10.154;2022-12-24T07:28:59;12.77;;;3.87;;
74363;SDS011;62797;49.740;10.154;2022-12-24T07:31:25;11.77;;;4.30;;
74363;SDS011;62797;49.740;10.154;2022-12-24T07:33:50;27.70;;;3.70;;
74363;SDS011;62797;49.740;10.154;2022-12-24T07:36:19;14.43;;;2.90;;
74363;SDS011;62797;49.740;10.154;2022-12-24T07:38:45;13.18;;;3.17;;
74363;SDS011;62797;49.740;10.154;2022-12-24T07:41:12;13.32;;;3.15;;
74363;SDS011;62797;49.740;10.154;2022-12-24T07:43:37;18.33;;;4.68;;
74363;SDS011;62797;49.740;10.154;2022-12-24T07:46:03;17.27;;;4.00;;
74363;SDS011;62797;49.740;10.154;2022-12-24T07:48:29;11.97;;;4.00;;
74363;SDS011;62797;49.740;10.154;2022-12-24T07:53:21;22.17;;;4.95;;
74363;SDS011;62797;49.740;10.154;2022-12-24T07:55:46;19.17;;;6.07;;
74363;SDS011;62797;49.740;10.154;2022-12-24T07:58:12;19.10;;;3.73;;
74363;SDS011;62797;49.740;10.154;2022-12-24T08:00:37;20.70;;;4.60;;
74363;SDS011;62797;49.740;10.154;2022-12-24T08:03:03;30.13;;;6.03;;
74363;SDS011;62797;49.740;10.154;2022-12-24T08:05:32;23.95;;;3.70;;
74363;SDS011;62797;49.740;10.154;2022-12-24T08:07:59;21.52;;;5.68;;
74363;SDS011;62797;49.740;10.154;2022-12-24T08:10:24;29.43;;;4.50;;
74363;SDS011;62797;49.740;10.154;2022-12-24T08:12:50;27.97;;;6.13;;
74363;SDS011;62797;49.740;10.154;2022-12-24T08:15:16;15.37;;;4.40;;
74363;SDS011;62797;49.740;10.154;2022-12-24T08:17:41;26.47;;;5.63;;
74363;SDS011;62797;49.740;10.154;2022-12-24T08:22:33;23.52;;;6.10;;
74363;SDS011;62797;49.740;10.154;2022-12-24T08:24:59;26.57;;;5.47;;
74363;SDS011;62797;49.740;10.154;2022-12-24T08:27:24;22.80;;;4.87;;
74363;SDS011;62797;49.740;10.154;2022-12-24T08:29:50;28.67;;;5.07;;
74363;SDS011;62797;49.740;10.154;2022-12-24T08:32:15;23.77;;;4.00;;
74363;SDS011;62797;49.740;10.154;2022-12-24T08:34:41;21.98;;;5.18;;
74363;SDS011;62797;49.740;10.154;2022-12-24T08:37:07;35.43;;;7.23;;
74363;SDS011;62797;49.740;10.154;2022-12-24T08:39:33;31.30;;;7.23;;
74363;SDS011;62797;49.740;10.154;2022-12-24T08:41:58;22.37;;;4.73;;
74363;SDS011;62797;49.740;10.154;2022-12-24T08:44:24;34.67;;;6.27;;
74363;SDS011;62797;49.740;10.154;2022-12-24T08:46:49;33.00;;;6.00;;
74363;SDS011;62797;49.740;10.154;2022-12-24T08:49:15;20.60;;;5.63;;
74363;SDS011;62797;49.740;10.154;2022-12-24T08:51:40;29.23;;;4.67;;
74363;SDS011;62797;49.740;10.154;2022-12-24T08:54:06;29.17;;;5.40;;
74363;SDS011;62797;49.740;10.154;2022-12-24T08:56:31;26.63;;;5.23;;
74363;SDS011;62797;49.740;10.154;2022-12-24T08:58:58;23.30;;;5.80;;
74363;SDS011;62797;49.740;10.154;2022-12-24T09:01:24;30.80;;;5.50;;
74363;SDS011;62797;49.740;10.154;2022-12-24T09:03:49;26.00;;;5.03;;
74363;SDS011;62797;49.740;10.154;2022-12-24T09:06:15;29.17;;;6.80;;
74363;SDS011;62797;49.740;10.154;2022-12-24T09:08:41;26.93;;;4.60;;
74363;SDS011;62797;49.740;10.154;2022-12-24T09:11:10;28.03;;;5.00;;
74363;SDS011;62797;49.740;10.154;2022-12-24T09:13:38;20.90;;;5.63;;
74363;SDS011;62797;49.740;10.154;2022-12-24T09:16:04;27.60;;;4.55;;
74363;SDS011;62797;49.740;10.154;2022-12-24T09:18:30;19.45;;;3.97;;
74363;SDS011;62797;49.740;10.154;2022-12-24T09:21:06;24.13;;;4.17;;
74363;SDS011;62797;49.740;10.154;2022-12-24T09:23:34;28.85;;;4.63;;
74363;SDS011;62797;49.740;10.154;2022-12-24T09:26:04;19.05;;;4.28;;
74363;SDS011;62797;49.740;10.154;2022-12-24T09:28:30;26.88;;;5.85;;
74363;SDS011;62797;49.740;10.154;2022-12-24T09:31:00;31.73;;;6.40;;
74363;SDS011;62797;49.740;10.154;2022-12-24T09:33:27;34.88;;;6.40;;
74363;SDS011;62797;49.740;10.154;2022-12-24T09:35:54;25.60;;;6.25;;
74363;SDS011;62797;49.740;10.154;2022-12-24T09:38:19;29.63;;;3.83;;
74363;SDS011;62797;49.740;10.154;2022-12-24T09:40:46;26.30;;;5.20;;
74363;SDS011;62797;49.740;10.154;2022-12-24T09:46:29;22.55;;;5.85;;
74363;SDS011;62797;49.740;10.154;2022-12-24T09:48:44;31.52;;;5.50;;
74363;SDS011;62797;49.740;10.154;2022-12-24T09:51:23;29.20;;;4.97;;
74363;SDS011;62797;49.740;10.154;2022-12-24T09:56:45;38.65;;;5.35;;
74363;SDS011;62797;49.740;10.154;2022-12-24T09:59:24;23.95;;;5.05;;
74363;SDS011;62797;49.740;10.154;2022-12-24T10:01:56;24.00;;;5.10;;
74363;SDS011;62797;49.740;10.154;2022-12-24T10:04:23;27.93;;;4.73;;
74363;SDS011;62797;49.740;10.154;2022-12-24T10:09:49;38.25;;;9.38;;
74363;SDS011;62797;49.740;10.154;2022-12-24T10:15:33;27.85;;;5.28;;
74363;SDS011;62797;49.740;10.154;2022-12-24T10:20:43;26.60;;;4.72;;
74363;SDS011;62797;49.740;10.154;2022-12-24T10:23:19;20.70;;;4.40;;
74363;SDS011;62797;49.740;10.154;2022-12-24T10:26:23;27.25;;;5.47;;
74363;SDS011;62797;49.740;10.154;2022-12-24T10:29:00;27.23;;;5.68;;
74363;SDS011;62797;49.740;10.154;2022-12-24T10:31:38;29.13;;;5.93;;
74363;SDS011;62797;49.740;10.154;2022-12-24T10:34:14;31.67;;;5.73;;
74363;SDS011;62797;49.740;10.154;2022-12-24T10:36:47;28.85;;;7.57;;
74363;SDS011;62797;49.740;10.154;2022-12-24T10:39:15;32.27;;;6.00;;
74363;SDS011;62797;49.740;10.154;2022-12-24T10:41:50;24.05;;;6.40;;
74363;SDS011;62797;49.740;10.154;2022-12-24T10:44:21;30.90;;;5.53;;
74363;SDS011;62797;49.740;10.154;2022-12-24T10:46:49;48.60;;;6.68;;
74363;SDS011;62797;49.740;10.154;2022-12-24T10:49:15;30.10;;;6.80;;
74363;SDS011;62797;49.740;10.154;2022-12-24T10:51:53;30.00;;;7.78;;
74363;SDS011;62797;49.740;10.154;2022-12-24T10:54:20;28.38;;;5.38;;
74363;SDS011;62797;49.740;10.154;2022-12-24T10:56:48;33.28;;;5.53;;
74363;SDS011;62797;49.740;10.154;2022-12-24T11:01:56;26.80;;;6.60;;
74363;SDS011;62797;49.740;10.154;2022-12-24T11:04:31;23.63;;;5.43;;
74363;SDS011;62797;49.740;10.154;2022-12-24T11:07:15;30.02;;;6.30;;
74363;SDS011;62797;49.740;10.154;2022-12-24T11:09:53;34.22;;;5.88;;
74363;SDS011;62797;49.740;10.154;2022-12-24T11:12:32;25.08;;;5.45;;
74363;SDS011;62797;49.740;10.154;2022-12-24T11:15:03;30.13;;;6.15;;
74363;SDS011;62797;49.740;10.154;2022-12-24T11:17:31;19.35;;;5.35;;
74363;SDS011;62797;49.740;10.154;2022-12-24T11:22:25;30.10;;;5.32;;
74363;SDS011;62797;49.740;10.154;2022-12-24T11:24:57;34.17;;;6.15;;
74363;SDS011;62797;49.740;10.154;2022-12-24T11:27:43;29.98;;;6.53;;
74363;SDS011;62797;49.740;10.154;2022-12-24T11:32:39;34.23;;;9.23;;
74363;SDS011;62797;49.740;10.154;2022-12-24T11:35:05;31.90;;;7.50;;
74363;SDS011;62797;49.740;10.154;2022-12-24T11:37:32;27.02;;;5.90;;
74363;SDS011;62797;49.740;10.154;2022-12-24T11:40:01;35.22;;;8.50;;
74363;SDS011;62797;49.740;10.154;2022-12-24T11:42:31;27.42;;;5.38;;
74363;SDS011;62797;49.740;10.154;2022-12-24T11:47:48;34.65;;;5.32;;
74363;SDS011;62797;49.740;10.154;2022-12-24T11:52:44;34.92;;;6.47;;
74363;SDS011;62797;49.740;10.154;2022-12-24T11:56:08;27.77;;;7.32;;
74363;SDS011;62797;49.740;10.154;2022-12-24T12:00:56;37.53;;;7.20;;
74363;SDS011;62797;49.740;10.154;2022-12-24T12:03:43;25.15;;;5.82;;
74363;SDS011;62797;49.740;10.154;2022-12-24T12:06:28;35.38;;;6.15;;
74363;SDS011;62797;49.740;10.154;2022-12-24T12:11:47;25.98;;;4.57;;
74363;SDS011;62797;49.740;10.154;2022-12-24T12:14:20;40.80;;;7.85;;
74363;SDS011;62797;49.740;10.154;2022-12-24T12:19:37;29.33;;;5.55;;
74363;SDS011;62797;49.740;10.154;2022-12-24T12:22:14;27.25;;;5.05;;
74363;SDS011;62797;49.740;10.154;2022-12-24T12:24:48;40.35;;;6.88;;
74363;SDS011;62797;49.740;10.154;2022-12-24T12:29:56;17.90;;;4.40;;
74363;SDS011;62797;49.740;10.154;2022-12-24T12:32:35;27.92;;;6.18;;
74363;SDS011;62797;49.740;10.154;2022-12-24T12:35:18;24.60;;;4.47;;
74363;SDS011;62797;49.740;10.154;2022-12-24T12:37:53;24.75;;;3.50;;
74363;SDS011;62797;49.740;10.154;2022-12-24T12:52:14;25.10;;;5.55;;
74363;SDS011;62797;49.740;10.154;2022-12-24T12:57:42;28.45;;;5.93;;
74363;SDS011;62797;49.740;10.154;2022-12-24T13:00:12;23.33;;;4.07;;
74363;SDS011;62797;49.740;10.154;2022-12-24T13:05:58;21.20;;;4.13;;
74363;SDS011;62797;49.740;10.154;2022-12-24T13:11:40;18.02;;;4.10;;
74363;SDS011;62797;49.740;10.154;2022-12-24T13:16:46;27.85;;;4.90;;
74363;SDS011;62797;49.740;10.154;2022-12-24T13:22:22;30.60;;;6.47;;
74363;SDS011;62797;49.740;10.154;2022-12-24T13:24:49;15.67;;;4.57;;
74363;SDS011;62797;49.740;10.154;2022-12-24T13:27:17;24.42;;;4.88;;
74363;SDS011;62797;49.740;10.154;2022-12-24T13:34:46;32.10;;;6.83;;
74363;SDS011;62797;49.740;10.154;2022-12-24T13:37:21;27.05;;;5.65;;
74363;SDS011;62797;49.740;10.154;2022-12-24T13:52:59;26.35;;;5.55;;
74363;SDS011;62797;49.740;10.154;2022-12-24T13:55:24;35.93;;;7.03;;
74363;SDS011;62797;49.740;10.154;2022-12-24T13:58:03;34.17;;;5.00;;
74363;SDS011;62797;49.740;10.154;2022-12-24T14:00:34;32.65;;;5.68;;
74363;SDS011;62797;49.740;10.154;2022-12-24T14:08:11;33.65;;;8.98;;
74363;SDS011;62797;49.740;10.154;2022-12-24T14:10:58;28.83;;;6.28;;
74363;SDS011;62797;49.740;10.154;2022-12-24T14:16:17;17.58;;;4.88;;
74363;SDS011;62797;49.740;10.154;2022-12-24T14:21:34;30.20;;;6.95;;
74363;SDS011;62797;49.740;10.154;2022-12-24T14:24:09;42.83;;;7.63;;
74363;SDS011;62797;49.740;10.154;2022-12-24T14:26:44;23.90;;;6.28;;
74363;SDS011;62797;49.740;10.154;2022-12-24T14:29:26;28.90;;;8.10;;
74363;SDS011;62797;49.740;10.154;2022-12-24T14:31:56;36.42;;;8.20;;
74363;SDS011;62797;49.740;10.154;2022-12-24T14:34:27;40.63;;;7.65;;
74363;SDS011;62797;49.740;10.154;2022-12-24T14:36:54;19.53;;;5.40;;
74363;SDS011;62797;49.740;10.154;2022-12-24T14:39:33;29.52;;;6.85;;
74363;SDS011;62797;49.740;10.154;2022-12-24T14:47:54;33.70;;;8.18;;
74363;SDS011;62797;49.740;10.154;2022-12-24T14:53:31;41.17;;;8.10;;
74363;SDS011;62797;49.740;10.154;2022-12-24T14:56:26;33.00;;;7.47;;
74363;SDS011;62797;49.740;10.154;2022-12-24T14:58:52;27.93;;;5.57;;
74363;SDS011;62797;49.740;10.154;2022-12-24T15:01:25;30.00;;;5.87;;
74363;SDS011;62797;49.740;10.154;2022-12-24T15:04:00;33.25;;;6.78;;
74363;SDS011;62797;49.740;10.154;2022-12-24T15:06:38;23.75;;;5.20;;
74363;SDS011;62797;49.740;10.154;2022-12-24T15:09:05;16.73;;;4.82;;
74363;SDS011;62797;49.740;10.154;2022-12-24T15:11:43;31.02;;;5.28;;
74363;SDS011;62797;49.740;10.154;2022-12-24T15:14:10;24.10;;;5.38;;
74363;SDS011;62797;49.740;10.154;2022-12-24T15:16:37;15.70;;;5.15;;
74363;SDS011;62797;49.740;10.154;2022-12-24T15:19:04;20.55;;;5.15;;
74363;SDS011;62797;49.740;10.154;2022-12-24T15:21:36;24.83;;;6.88;;
74363;SDS011;62797;49.740;10.154;2022-12-24T15:24:22;21.63;;;4.82;;
74363;SDS011;62797;49.740;10.154;2022-12-24T15:26:49;18.98;;;5.68;;
74363;SDS011;62797;49.740;10.154;2022-12-24T15:29:19;17.50;;;5.27;;
74363;SDS011;62797;49.740;10.154;2022-12-24T15:31:54;20.58;;;5.40;;
74363;SDS011;62797;49.740;10.154;2022-12-24T15:34:28;20.02;;;5.10;;
74363;SDS011;62797;49.740;10.154;2022-12-24T15:37:01;27.85;;;6.05;;
74363;SDS011;62797;49.740;10.154;2022-12-24T15:39:35;19.50;;;6.65;;
74363;SDS011;62797;49.740;10.154;2022-12-24T15:42:03;21.55;;;5.50;;
74363;SDS011;62797;49.740;10.154;2022-12-24T15:45:24;28.52;;;5.70;;
74363;SDS011;62797;49.740;10.154;2022-12-24T15:47:37;18.80;;;6.50;;
74363;SDS011;62797;49.740;10.154;2022-12-24T15:50:13;24.48;;;5.93;;
74363;SDS011;62797;49.740;10.154;2022-12-24T15:52:45;34.10;;;5.88;;
74363;SDS011;62797;49.740;10.154;2022-12-24T15:55:28;23.95;;;5.90;;
74363;SDS011;62797;49.740;10.154;2022-12-24T16:01:00;23.27;;;7.13;;
74363;SDS011;62797;49.740;10.154;2022-12-24T16:03:29;34.92;;;5.75;;
74363;SDS011;62797;49.740;10.154;2022-12-24T16:06:01;23.65;;;6.50;;
74363;SDS011;62797;49.740;10.154;2022-12-24T16:08:38;21.00;;;5.07;;
74363;SDS011;62797;49.740;10.154;2022-12-24T16:13:34;24.17;;;4.65;;
74363;SDS011;62797;49.740;10.154;2022-12-24T16:16:28;10.13;;;2.80;;
74363;SDS011;62797;49.740;10.154;2022-12-24T16:18:59;21.10;;;4.50;;
74363;SDS011;62797;49.740;10.154;2022-12-24T16:21:36;22.65;;;5.15;;
74363;SDS011;62797;49.740;10.154;2022-12-24T16:24:06;16.30;;;4.85;;
74363;SDS011;62797;49.740;10.154;2022-12-24T16:26:42;31.58;;;8.23;;
74363;SDS011;62797;49.740;10.154;2022-12-24T16:29:08;25.63;;;7.03;;
74363;SDS011;62797;49.740;10.154;2022-12-24T16:31:36;20.80;;;6.00;;
74363;SDS011;62797;49.740;10.154;2022-12-24T16:34:11;15.90;;;6.05;;
74363;SDS011;62797;49.740;10.154;2022-12-24T16:36:42;25.48;;;7.53;;
74363;SDS011;62797;49.740;10.154;2022-12-24T16:39:16;36.35;;;11.50;;
74363;SDS011;62797;49.740;10.154;2022-12-24T16:41:51;18.33;;;7.80;;
74363;SDS011;62797;49.740;10.154;2022-12-24T16:44:37;23.30;;;7.65;;
74363;SDS011;62797;49.740;10.154;2022-12-24T16:47:03;26.83;;;8.77;;
74363;SDS011;62797;49.740;10.154;2022-12-24T16:49:30;28.17;;;10.07;;
74363;SDS011;62797;49.740;10.154;2022-12-24T16:51:56;22.33;;;7.63;;
74363;SDS011;62797;49.740;10.154;2022-12-24T16:54:22;23.80;;;6.90;;
74363;SDS011;62797;49.740;10.154;2022-12-24T16:56:47;13.63;;;6.87;;
74363;SDS011;62797;49.740;10.154;2022-12-24T16:59:20;23.13;;;6.90;;
74363;SDS011;62797;49.740;10.154;2022-12-24T17:01:47;15.07;;;5.80;;
74363;SDS011;62797;49.740;10.154;2022-12-24T17:04:13;18.80;;;6.53;;
74363;SDS011;62797;49.740;10.154;2022-12-24T17:06:41;20.80;;;10.35;;
74363;SDS011;62797;49.740;10.154;2022-12-24T17:09:08;22.23;;;9.20;;